Latest Weather Observations for Wyndham Airport

IDW60801

Issued at 2:34 pm WST Wednesday 28 September 2016 (issued every 30 minutes, with the page automatically refreshed every 10 minutes)

About weather observations | Map of weather stations | Latest weather observations for WA | Other Formats
Station Details ID: 001006 Name: WYNDHAM AERO Lat: -15.51 Lon: 128.15 Height: 3.8 m
Data from the previous 72 hours. | See also: Recent months at Wyndham Airport
Date/Time
WST
Temp
°C
App
Temp
°C
Dew
Point
°C
Rel
Hum
%
Delta-T
°C
Wind Press
QNH
hPa
Press
MSL
hPa
Rain since
9am
mm
Dir  Spd
km/h
Gust
km/h
Spd
kts
Gust
kts
28/02:30pm 40.3 39.0 11.4 18 17.5 NW 9 19 5 10 1005.5 1005.5 0.0
28/02:00pm 40.1 37.7 11.3 18 17.4 NW 15 24 8 13 1005.8 1005.8 0.0
28/01:30pm 39.3 37.4 10.6 18 17.0 W 11 22 6 12 1006.2 1006.2 0.0
28/01:00pm 40.7 38.8 11.7 18 17.6 WNW 13 26 7 14 1006.5 1006.5 0.0
28/12:30pm 39.6 37.3 11.7 19 16.8 NW 15 26 8 14 1007.1 1007.1 0.0
28/12:00pm 40.0 37.2 11.2 18 17.3 W 17 37 9 20 1007.7 1007.7 0.0
28/11:30am 39.4 35.7 11.5 19 16.8 W 22 33 12 18 1008.4 1008.4 0.0
28/11:00am 38.7 35.4 11.7 20 16.3 W 20 28 11 15 1009.1 1009.1 0.0
28/10:30am 38.5 35.4 12.3 21 15.9 WSW 20 30 11 16 1009.6 1009.6 0.0
28/10:00am 37.9 34.3 11.8 21 15.7 W 22 33 12 18 1010.0 1010.0 0.0
28/09:30am 37.1 33.9 11.8 22 15.2 WSW 20 30 11 16 1010.4 1010.4 0.0
28/09:00am 36.5 32.5 10.6 21 15.2 WSW 22 30 12 16 1010.8 1010.8 0.0
28/08:30am 36.3 31.7 11.2 22 14.9 WSW 26 33 14 18 1011.0 1011.0 0.0
28/08:00am 34.7 29.8 11.2 24 13.8 WSW 28 33 15 18 1010.9 1010.9 0.0
28/07:30am 34.1 30.1 11.9 26 13.2 W 24 30 13 16 1010.9 1010.9 0.0
28/07:00am 32.0 30.3 12.3 30 11.7 NW 13 26 7 14 1010.7 1010.7 0.0
28/06:30am 30.5 30.1 14.2 37 9.9 WNW 9 11 5 6 1010.4 1010.4 0.0
28/06:00am 28.5 27.7 14.0 41 8.7 NW 11 11 6 6 1009.8 1009.8 0.0
28/05:30am 28.0 27.0 13.5 41 8.6 NW 11 13 6 7 1009.4 1009.4 0.0
28/05:00am 28.7 27.4 13.8 40 8.9 NNW 13 15 7 8 1009.0 1009.0 0.0
28/04:30am 29.1 27.3 13.3 37 9.4 WNW 15 17 8 9 1008.6 1008.6 0.0
28/04:00am 29.2 27.7 14.2 40 9.0 NW 15 19 8 10 1008.1 1008.1 0.0
28/03:30am 28.8 28.3 15.0 43 8.4 NW 11 15 6 8 1007.9 1007.9 0.0
28/03:00am 28.8 28.4 15.3 43 8.3 NW 11 13 6 7 1007.9 1007.9 0.0
28/02:30am 28.8 29.4 16.7 48 7.6 NW 9 11 5 6 1007.8 1007.8 0.0
28/02:00am 28.9 29.5 16.8 48 7.6 WSW 9 11 5 6 1007.8 1007.8 0.0
28/01:30am 28.7 29.3 16.9 48 7.4 SW 9 9 5 5 1007.8 1007.8 0.0
28/01:00am 29.5 29.3 16.7 46 8.0 NNW 13 15 7 8 1007.8 1007.8 0.0
28/12:30am 29.2 29.0 16.7 46 7.8 NW 13 15 7 8 1008.3 1008.3 0.0
28/12:00am 29.8 30.1 16.9 45 8.1 NW 11 13 6 7 1008.7 1008.7 0.0
 
Date/Time
WST
Temp
°C
App
Temp
°C
Dew
Point
°C
Rel
Hum
%
Delta-T
°C
Wind Press
QNH
hPa
Press
MSL
hPa
Rain since
9am
mm
Dir  Spd
km/h
Gust
km/h
Spd
kts
Gust
kts
27/11:30pm 30.5 30.5 17.2 44 8.4 NNW 13 15 7 8 1008.9 1008.9 0.0
27/11:00pm 30.4 30.5 17.5 46 8.2 NW 13 15 7 8 1009.0 1009.0 0.0
27/10:30pm 30.9 31.2 17.9 45 8.3 NW 13 15 7 8 1009.3 1009.3 0.0
27/10:00pm 30.2 31.7 18.0 48 7.8 WNW 7 11 4 6 1009.3 1009.3 0.0
27/09:30pm 30.3 32.1 18.4 49 7.7 N 6 9 3 5 1009.5 1009.5 0.0
27/09:00pm 30.7 32.0 18.4 47 7.9 N 9 13 5 7 1009.4 1009.4 0.0
27/08:30pm 31.2 31.8 18.5 46 8.2 N 13 17 7 9 1009.4 1009.4 0.0
27/08:00pm 31.3 32.7 19.6 49 7.7 N 11 17 6 9 1009.3 1009.3 0.0
27/07:30pm 31.6 33.6 19.9 50 7.7 N 9 15 5 8 1008.9 1008.9 0.0
27/07:00pm 31.8 32.3 20.1 50 7.8 N 17 30 9 16 1008.3 1008.3 0.0
27/06:30pm 32.1 32.1 19.7 48 8.2 N 19 32 10 17 1007.9 1007.9 0.0
27/06:00pm 32.7 30.5 18.8 43 9.1 N 28 39 15 21 1007.4 1007.4 0.0
27/05:30pm 33.2 31.4 17.8 40 9.9 N 24 39 13 21 1006.9 1006.9 0.0
27/05:24pm 33.2 30.4 18.2 41 9.7 N 30 48 16 26 1006.8 1006.8 0.0
27/05:00pm 33.5 30.4 18.8 41 9.6 N 33 48 18 26 1006.3 1006.3 0.0
27/04:30pm 34.5 29.9 18.1 37 10.6 N 39 52 21 28 1005.9 1005.9 0.0
27/04:00pm 36.0 31.6 15.7 30 12.8 N 33 48 18 26 1005.6 1005.6 0.0
27/03:30pm 37.3 33.3 14.0 25 14.4 N 28 35 15 19 1005.4 1005.4 0.0
27/03:00pm 39.3 35.7 12.9 20 16.2 NNW 24 37 13 20 1005.3 1005.3 0.0
27/02:59pm 39.5 35.9 13.1 21 16.3 NNW 24 37 13 20 1005.3 1005.3 0.0
27/02:30pm 39.9 37.9 10.2 17 17.6 N 11 17 6 9 1005.4 1005.4 0.0
27/02:00pm 40.5 38.7 10.7 17 17.8 NNW 11 22 6 12 1005.6 1005.6 0.0
27/01:30pm 41.0 38.3 10.2 16 18.3 NNW 15 24 8 13 1005.9 1005.9 0.0
27/01:00pm 40.0 36.5 10.3 17 17.7 WSW 19 32 10 17 1006.1 1006.1 0.0
27/12:30pm 40.3 37.3 10.6 17 17.7 NW 17 24 9 13 1006.6 1006.6 0.0
27/12:00pm 39.5 37.1 9.9 17 17.5 W 13 20 7 11 1007.2 1007.2 0.0
27/11:30am 39.1 36.4 10.4 18 17.0 S 15 22 8 12 1008.0 1008.0 0.0
27/11:00am 38.9 36.9 10.3 18 16.9 SSW 11 20 6 11 1008.8 1008.8 0.0
27/10:30am 39.0 35.6 10.4 18 16.9 W 19 30 10 16 1009.4 1009.4 0.0
27/10:00am 38.0 35.1 11.1 20 16.0 SW 17 26 9 14 1010.0 1010.0 0.0
27/09:30am 36.3 32.9 11.2 22 14.9 WSW 20 30 11 16 1010.4 1010.4 0.0
27/09:00am 36.3 32.5 12.5 24 14.4 WSW 24 35 13 19 1010.5 1010.5 0.0
27/08:30am 35.9 31.6 12.2 24 14.2 WSW 26 32 14 17 1010.8 1010.8 0.0
27/08:00am 34.5 34.0 14.9 31 12.2 W 11 20 6 11 1010.8 1010.8 0.0
27/07:30am 32.2 33.4 17.3 41 9.5 WSW 7 11 4 6 1010.9 1010.9 0.0
27/07:00am 30.0 34.0 20.5 56 6.3 CALM 0 6 0 3 1010.6 1010.6 0.0
27/06:30am 28.0 32.0 22.0 70 4.0 NE 4 7 2 4 1010.3 1010.3 0.0
27/06:00am 26.4 29.1 22.9 81 2.4 ESE 13 15 7 8 1010.2 1010.2 0.0
27/05:30am 24.8 27.2 21.5 82 2.2 ESE 11 13 6 7 1009.7 1009.7 0.0
27/05:00am 25.2 27.7 21.7 81 2.3 E 11 13 6 7 1009.7 1009.7 0.0
27/04:30am 25.6 27.7 21.7 79 2.6 ESE 13 15 7 8 1009.4 1009.4 0.0
27/04:00am 25.8 28.4 21.9 79 2.6 E 11 11 6 6 1009.1 1009.1 0.0
27/03:30am 25.9 28.4 21.8 78 2.7 E 11 15 6 8 1008.6 1008.6 0.0
27/03:00am 26.4 28.2 21.8 76 3.1 E 15 17 8 9 1008.3 1008.3 0.0
27/02:30am 26.0 28.1 21.7 77 2.9 ESE 13 15 7 8 1008.2 1008.2 0.0
27/02:00am 26.3 29.3 21.9 77 2.9 ESE 9 11 5 6 1008.0 1008.0 0.0
27/01:30am 26.2 28.8 21.2 74 3.3 E 9 11 5 6 1008.2 1008.2 0.0
27/01:00am 26.8 29.2 21.6 73 3.5 E 11 11 6 6 1008.3 1008.3 0.0
27/12:30am 26.6 28.6 20.7 70 3.9 E 11 11 6 6 1008.6 1008.6 0.0
27/12:00am 27.8 30.1 21.3 67 4.3 E 11 13 6 7 1009.0 1009.0 0.0
 
Date/Time
WST
Temp
°C
App
Temp
°C
Dew
Point
°C
Rel
Hum
%
Delta-T
°C
Wind Press
QNH
hPa
Press
MSL
hPa
Rain since
9am
mm
Dir  Spd
km/h
Gust
km/h
Spd
kts
Gust
kts
26/11:30pm 28.0 29.9 21.3 67 4.5 ESE 13 15 7 8 1009.3 1009.3 0.0
26/11:00pm 27.8 29.1 20.1 63 5.0 ESE 13 15 7 8 1009.6 1009.6 0.0
26/10:30pm 28.4 30.6 19.1 57 6.0 E 6 7 3 4 1009.8 1009.8 0.0
26/10:00pm 29.5 31.8 17.7 49 7.5 NNE 2 9 1 5 1009.9 1009.9 0.0
26/09:30pm 31.4 33.5 17.3 43 9.0 N 2 7 1 4 1009.9 1009.9 0.0
26/09:00pm 32.1 33.0 17.6 42 9.3 NE 9 15 5 8 1009.8 1009.8 0.0
26/08:30pm 31.7 32.9 18.3 45 8.6 SE 9 19 5 10 1009.7 1009.7 0.0
26/08:00pm 31.4 33.0 20.0 50 7.5 WNW 11 20 6 11 1009.1 1009.1 0.0
26/07:30pm 31.9 33.5 19.2 47 8.3 NNW 9 20 5 11 1008.8 1008.8 0.0
26/07:00pm 31.7 32.9 20.0 50 7.7 NNW 13 22 7 12 1008.5 1008.5 0.0
26/06:30pm 31.9 30.2 19.9 49 7.9 N 28 43 15 23 1007.9 1007.9 0.0
26/06:00pm 32.3 28.0 17.7 41 9.4 N 37 50 20 27 1007.1 1007.1 0.0
26/05:30pm 32.8 27.8 17.0 38 10.0 N 39 52 21 28 1006.6 1006.6 0.0
26/05:00pm 33.7 27.9 16.1 34 11.1 N 41 52 22 28 1006.2 1006.2 0.0
26/04:30pm 35.1 30.2 16.4 32 11.9 N 37 50 20 27 1005.8 1005.8 0.0
26/04:00pm 36.5 31.7 16.6 30 12.8 N 37 46 20 25 1005.4 1005.4 0.0
26/03:41pm 38.9 33.9 13.3 22 15.8 N 32 46 17 25 1005.1 1005.1 0.0
26/03:30pm 40.2 37.5 10.5 17 17.7 N 15 28 8 15 1005.1 1005.1 0.0
26/03:00pm 40.0 36.0 10.3 17 17.7 NNW 22 30 12 16 1005.1 1005.1 0.0
26/02:30pm 41.3 38.6 10.4 16 18.4 NNW 15 24 8 13 1005.1 1005.1 0.0
26/02:00pm 41.2 38.1 10.4 16 18.4 N 17 30 9 16 1005.3 1005.3 0.0
26/01:30pm 40.6 36.8 9.9 16 18.1 NNW 20 35 11 19 1005.5 1005.5 0.0
26/01:00pm 40.2 37.4 11.3 18 17.4 NNW 17 28 9 15 1005.8 1005.8 0.0
26/12:30pm 41.3 38.5 11.3 17 18.1 NW 17 28 9 15 1006.2 1006.2 0.0
26/12:00pm 39.8 37.1 11.8 19 17.0 W 17 24 9 13 1006.6 1006.6 0.0
26/11:30am 39.1 37.1 12.8 21 16.1 W 15 22 8 12 1007.2 1007.2 0.0
26/11:00am 39.4 39.2 13.0 21 16.3 S 6 11 3 6 1007.8 1007.8 0.0
26/10:30am 37.6 38.4 14.8 25 14.3 NW 4 11 2 6 1008.2 1008.2 0.0
26/10:00am 37.5 37.5 15.3 26 14.0 SW 9 17 5 9 1008.6 1008.6 0.0
26/09:30am 35.6 35.1 14.8 28 12.9 SW 11 20 6 11 1009.0 1009.0 0.0
26/09:00am 35.4 35.2 15.7 31 12.4 W 11 17 6 9 1009.3 1009.3 0.0
26/08:30am 34.0 34.6 15.9 33 11.4 W 7 11 4 6 1009.4 1009.4 0.0
26/08:00am 32.7 33.0 16.1 37 10.4 W 9 13 5 7 1009.4 1009.4 0.0
26/07:30am 31.8 32.7 16.5 39 9.6 NW 7 11 4 6 1009.5 1009.5 0.0
26/07:00am 30.1 31.9 20.4 56 6.4 E 11 13 6 7 1009.3 1009.3 0.0
26/06:30am 28.3 30.6 21.3 65 4.7 ESE 11 15 6 8 1009.1 1009.1 0.0
26/06:00am 26.5 29.2 21.3 73 3.5 ENE 9 11 5 6 1008.6 1008.6 0.0
26/05:30am 25.6 27.2 20.8 75 3.2 ESE 13 17 7 9 1008.3 1008.3 0.0
26/05:00am 24.6 25.7 19.7 74 3.2 ESE 13 15 7 8 1007.8 1007.8 0.0
26/04:30am 25.3 27.8 19.9 72 3.5 N 6 7 3 4 1007.3 1007.3 0.0
26/04:00am 25.7 29.0 20.0 71 3.7 NE 2 6 1 3 1006.8 1006.8 0.0
26/03:30am 25.8 27.9 20.1 71 3.7 ESE 9 11 5 6 1006.6 1006.6 0.0
26/03:00am 25.9 27.6 20.2 71 3.7 E 11 13 6 7 1006.7 1006.7 0.0
26/02:30am 26.2 27.9 20.1 69 4.0 E 11 13 6 7 1006.9 1006.9 0.0
26/02:00am 26.8 28.1 20.2 67 4.3 ESE 13 15 7 8 1007.1 1007.1 0.0
26/01:30am 26.9 27.8 20.0 66 4.5 E 15 17 8 9 1007.3 1007.3 0.0
26/01:00am 27.7 28.8 20.5 65 4.7 E 15 17 8 9 1007.6 1007.6 0.0
26/12:30am 27.9 29.1 19.9 61 5.2 E 13 17 7 9 1007.8 1007.8 0.0
26/12:00am 27.6 28.2 19.4 61 5.3 E 15 17 8 9 1008.0 1008.0 0.0
 
Date/Time
WST
Temp
°C
App
Temp
°C
Dew
Point
°C
Rel
Hum
%
Delta-T
°C
Wind Press
QNH
hPa
Press
MSL
hPa
Rain since
9am
mm
Dir  Spd
km/h
Gust
km/h
Spd
kts
Gust
kts
25/11:30pm 27.9 29.4 18.9 58 5.8 ESE 9 13 5 7 1008.3 1008.3 0.0
25/11:00pm 28.2 28.4 18.6 56 6.2 ESE 15 19 8 10 1008.5 1008.5 0.0
25/10:30pm 28.1 29.2 17.9 54 6.5 ESE 9 13 5 7 1008.6 1008.6 0.0
25/10:00pm 29.4 28.8 18.5 52 7.0 SE 19 20 10 11 1008.6 1008.6 0.0
25/09:30pm 29.8 30.5 18.9 52 7.1 E 13 17 7 9 1008.7 1008.7 0.0
25/09:00pm 30.3 32.0 18.4 49 7.7 ENE 7 11 4 6 1008.6 1008.6 0.0
25/08:30pm 32.4 32.6 16.7 39 9.9 NW 11 20 6 11 1008.5 1008.5 0.0
25/08:00pm 31.7 33.6 19.0 47 8.3 SSE 7 13 4 7 1008.3 1008.3 0.0
25/07:30pm 32.4 31.7 18.6 44 9.0 N 20 28 11 15 1007.7 1007.7 0.0
25/07:00pm 33.0 29.6 16.8 38 10.3 N 30 37 16 20 1007.0 1007.0 0.0
25/06:30pm 33.4 29.8 16.3 36 10.8 N 30 39 16 21 1006.6 1006.6 0.0
25/06:00pm 33.5 29.4 16.4 36 10.8 N 33 41 18 22 1006.1 1006.1 0.0
25/05:30pm 33.8 29.8 16.2 35 11.1 N 32 44 17 24 1005.7 1005.7 0.0
25/05:00pm 35.0 32.8 16.8 34 11.7 N 24 33 13 18 1005.3 1005.3 0.0
25/04:30pm 36.6 34.5 17.2 31 12.5 N 24 33 13 18 1004.9 1004.9 0.0
25/04:00pm 38.9 36.3 11.9 20 16.4 NNE 17 26 9 14 1004.7 1004.7 0.0
25/03:30pm 39.4 36.8 10.7 18 17.1 NNW 15 28 8 15 1004.8 1004.8 0.0
25/03:00pm 39.3 36.7 10.6 18 17.1 NNW 15 24 8 13 1004.9 1004.9 0.0

Other Formats:

Comma delimited format used in spreadsheet applications
http://www.bom.gov.au/fwo/IDW60801/IDW60801.95214.axf

JavaScript Object Notation format (JSON) in row-major order
http://www.bom.gov.au/fwo/IDW60801/IDW60801.95214.json